KDAB/DAB METAR and TAF weather

Enter ICAO airport designator
Station Type Date Time Source
KDAB METAR 2018/04/21 20:53 UTC NOAA

KDAB 212053Z 10012G20KT 8SM SCT020 SCT030 BKN040 23/19 A3016 RMK AO2 SLP214 60000 T02330189 56012


Station Type Date Time Source
KDAB Decoded METAR 2018/04/21 20:53 UTC NOAA

DAYTONA BEACH INTERNATIONAL, FL, United States (KDAB) 29-10N 81-04W 9M
Apr 21, 2018 - 04:53 PM EDT / 2018.04.21 2053 UTC
Wind: from the E (100 degrees) at 14 MPH (12 KT) gusting to 23 MPH (20 KT):0
Visibility: 8 mile(s):0
Sky conditions: mostly cloudy
Temperature: 73.9 F (23.3 C)
Dew Point: 66.0 F (18.9 C)
Relative Humidity: 76%
Pressure (altimeter): 30.16 in. Hg (1021 hPa)
Pressure tendency: 0.04 inches (1.2 hPa) lower than three hours ago
ob: KDAB 212053Z 10012G20KT 8SM SCT020 SCT030 BKN040 23/19 A3016 RMK AO2 SLP214 60000 T02330189 56012
cycle: 21

Station Type Date Time Source
KDAB TAF 2018/04/21 18:45 UTC NOAA

TAF KDAB 211736Z 2118/2218 08016G24KT P6SM VCSH SCT025 BKN035
FM220000 07010KT P6SM VCSH SCT025 BKN035
FM220300 07008KT P6SM VCSH SCT015 BKN025
TEMPO 2209/2212 BKN012
FM221300 08013G19KT P6SM VCSH SCT025 BKN035


Example: see airport list